Terminal Aerodrome Forecast
Issued by NWS

Home | Current Version | Previous Version | Text Only | Print | Product List | Glossary On
Versions: 1 2 3 4 5 6 7 8 9 10 11 12 13 14 15 16 17 18
560
FTUS41 KBTV 240520
TAFMPV
TAF
KMPV 240520Z 2406/2506 VRB06KT P6SM FEW200
     FM241500 00000KT P6SM VCSH SCT150
     FM241700 07004KT P6SM VCSH BKN100
     FM242100 VRB03KT P6SM -SHRA BKN060
     FM242200 00000KT P6SM VCSH BKN080
     FM250200 00000KT P6SM BKN140=

USA.gov is the U.S. government's official web portal to all federal, state and local government web resources and services.